createdAt,value
2022-10-26T00:02:21.147Z,11.10
2022-10-26T00:04:50.268Z,11.20
2022-10-26T00:07:19.055Z,11.20
2022-10-26T00:09:49.134Z,11.40
2022-10-26T00:12:17.739Z,11.50
2022-10-26T00:14:46.349Z,11.60
2022-10-26T00:17:15.002Z,11.60
2022-10-26T00:19:43.684Z,11.70
2022-10-26T00:22:12.432Z,11.80
2022-10-26T00:24:41.048Z,11.90
2022-10-26T00:27:11.131Z,11.90
2022-10-26T00:29:42.915Z,11.90
2022-10-26T00:32:11.659Z,12.00
2022-10-26T00:34:40.579Z,12.00
2022-10-26T00:37:09.887Z,11.90
2022-10-26T00:39:40.842Z,11.90
2022-10-26T00:42:14.510Z,11.70
2022-10-26T00:45:06.281Z,11.70
2022-10-26T00:47:46.828Z,11.80
2022-10-26T00:50:19.766Z,11.80
2022-10-26T00:52:49.932Z,11.90
2022-10-26T00:55:23.366Z,12.00
2022-10-26T00:57:54.955Z,12.00
2022-10-26T01:00:23.860Z,12.10
2022-10-26T01:02:54.919Z,12.10
2022-10-26T01:05:25.575Z,12.00
2022-10-26T01:07:55.682Z,12.10
2022-10-26T01:10:26.481Z,12.20
2022-10-26T01:12:58.211Z,12.20
2022-10-26T01:15:34.370Z,12.20
2022-10-26T01:18:10.855Z,12.20
2022-10-26T01:21:10.000Z,12.10
2022-10-26T01:23:52.321Z,12.20
2022-10-26T01:26:43.284Z,12.20
2022-10-26T01:29:33.273Z,12.10
2022-10-26T01:32:11.339Z,12.10
2022-10-26T01:34:46.361Z,12.10
2022-10-26T01:37:22.446Z,12.10
2022-10-26T01:39:55.708Z,12.10
2022-10-26T01:42:27.563Z,12.10
2022-10-26T01:45:01.188Z,12.10
2022-10-26T01:47:35.443Z,12.10
2022-10-26T01:50:05.953Z,12.10
2022-10-26T01:52:35.388Z,12.10
2022-10-26T01:55:05.077Z,12.00
2022-10-26T01:57:36.935Z,12.10
2022-10-26T02:00:09.707Z,12.10
2022-10-26T02:03:01.966Z,12.10
2022-10-26T02:05:54.709Z,12.10
2022-10-26T02:08:39.250Z,12.00
2022-10-26T02:11:17.825Z,12.00
2022-10-26T02:13:52.821Z,12.00
2022-10-26T02:16:27.864Z,12.00
2022-10-26T02:19:04.565Z,12.00
2022-10-26T02:21:43.117Z,12.10
2022-10-26T02:24:15.377Z,12.20
2022-10-26T02:26:48.037Z,12.20
2022-10-26T02:29:20.426Z,12.10
2022-10-26T02:31:51.844Z,12.10
2022-10-26T02:34:27.322Z,12.20
2022-10-26T02:36:59.323Z,12.20
2022-10-26T02:39:32.611Z,12.20
2022-10-26T02:42:03.936Z,12.30
2022-10-26T02:44:37.989Z,12.30
2022-10-26T02:47:06.707Z,12.30
2022-10-26T02:49:38.771Z,12.30
2022-10-26T02:52:14.739Z,12.30
2022-10-26T02:54:50.811Z,12.30
2022-10-26T02:57:22.449Z,12.30
2022-10-26T02:59:51.411Z,12.30
2022-10-26T03:02:21.199Z,12.20
2022-10-26T03:04:51.952Z,12.10
2022-10-26T03:07:24.350Z,12.00
2022-10-26T03:09:53.092Z,11.80
2022-10-26T03:12:21.922Z,11.80
2022-10-26T03:14:50.463Z,11.80
2022-10-26T03:17:19.378Z,11.90
2022-10-26T03:19:48.078Z,12.00
2022-10-26T03:22:18.057Z,12.00
2022-10-26T03:24:46.747Z,12.10
2022-10-26T03:27:16.039Z,12.10
2022-10-26T03:29:47.213Z,12.20
2022-10-26T03:32:15.875Z,12.20
2022-10-26T03:34:44.756Z,12.40
2022-10-26T03:37:13.392Z,12.40
2022-10-26T03:39:43.502Z,12.50
2022-10-26T03:42:12.148Z,12.50
2022-10-26T03:44:40.760Z,12.50
2022-10-26T03:47:09.519Z,12.50
2022-10-26T03:49:40.935Z,12.50
2022-10-26T03:52:09.699Z,12.60
2022-10-26T03:54:38.562Z,12.60
2022-10-26T03:57:08.748Z,12.60
2022-10-26T03:59:37.792Z,12.60
2022-10-26T04:02:06.383Z,12.60
2022-10-26T04:04:35.270Z,12.60
2022-10-26T04:07:03.879Z,12.60
2022-10-26T04:09:32.517Z,12.60
2022-10-26T04:12:01.082Z,12.70
2022-10-26T04:14:31.198Z,12.60
2022-10-26T04:16:59.835Z,12.60
2022-10-26T04:19:29.348Z,12.70
2022-10-26T04:21:57.986Z,12.60
2022-10-26T04:24:26.664Z,12.60
2022-10-26T04:26:55.364Z,12.60
2022-10-26T04:29:23.937Z,12.60
2022-10-26T04:31:54.112Z,12.60
2022-10-26T04:34:22.851Z,12.60
2022-10-26T04:36:51.653Z,12.60
2022-10-26T04:39:20.252Z,12.60
2022-10-26T04:41:49.192Z,12.60
2022-10-26T04:44:17.822Z,12.60
2022-10-26T04:46:46.691Z,12.60
2022-10-26T04:49:16.697Z,12.60
2022-10-26T04:51:46.262Z,12.60
2022-10-26T04:54:15.142Z,12.60
2022-10-26T04:56:43.872Z,12.60
2022-10-26T04:59:17.593Z,12.50
2022-10-26T05:01:57.280Z,12.50
2022-10-26T05:04:27.561Z,12.60
2022-10-26T05:06:56.194Z,12.50
2022-10-26T05:09:24.917Z,12.50
2022-10-26T05:11:53.597Z,12.50
2022-10-26T05:14:33.569Z,12.50
2022-10-26T05:17:07.007Z,12.50
2022-10-26T05:19:40.423Z,12.50
2022-10-26T05:22:09.441Z,12.50
2022-10-26T05:24:41.205Z,12.50
2022-10-26T05:27:09.902Z,12.50
2022-10-26T05:29:41.692Z,12.50
2022-10-26T05:32:13.001Z,12.50
2022-10-26T05:35:02.780Z,12.50
2022-10-26T05:37:41.784Z,12.50
2022-10-26T05:40:25.910Z,12.50
2022-10-26T05:42:54.962Z,12.50
2022-10-26T05:45:23.583Z,12.50
2022-10-26T05:47:52.462Z,12.50
2022-10-26T05:50:27.437Z,12.50
2022-10-26T05:52:58.654Z,12.50
2022-10-26T05:55:28.070Z,12.50
2022-10-26T05:57:57.418Z,12.60
2022-10-26T06:00:28.777Z,12.70
2022-10-26T06:03:15.596Z,12.70
2022-10-26T06:05:53.799Z,12.70
2022-10-26T06:08:24.819Z,12.70
2022-10-26T06:10:55.736Z,12.70
2022-10-26T06:13:28.071Z,12.70
2022-10-26T06:16:14.307Z,12.70
2022-10-26T06:19:03.624Z,12.70
2022-10-26T06:21:47.229Z,12.80
2022-10-26T06:24:23.073Z,12.80
2022-10-26T06:26:59.653Z,12.80
2022-10-26T06:29:51.797Z,12.80
2022-10-26T06:32:33.784Z,12.90
2022-10-26T06:35:23.589Z,13.00
2022-10-26T06:37:55.733Z,13.00
2022-10-26T06:40:25.706Z,13.10
2022-10-26T06:42:54.919Z,13.10
2022-10-26T06:45:24.336Z,13.10
2022-10-26T06:47:58.770Z,13.10
2022-10-26T06:50:35.292Z,13.20
2022-10-26T06:53:21.333Z,13.20
2022-10-26T06:55:53.825Z,13.20
2022-10-26T06:58:26.066Z,13.20
2022-10-26T07:00:56.966Z,13.30
2022-10-26T07:03:40.437Z,13.40
2022-10-26T07:06:12.015Z,13.50
2022-10-26T07:08:42.174Z,13.50
2022-10-26T07:11:10.895Z,13.60
2022-10-26T07:13:39.455Z,13.60
2022-10-26T07:16:08.619Z,13.70
2022-10-26T07:18:40.027Z,13.80
2022-10-26T07:21:08.819Z,13.80
2022-10-26T07:23:46.048Z,13.80
2022-10-26T07:26:14.653Z,13.90
2022-10-26T07:28:43.285Z,13.90
2022-10-26T07:31:11.917Z,14.00
2022-10-26T07:33:41.889Z,14.20
2022-10-26T07:36:11.163Z,14.20
2022-10-26T07:38:42.077Z,14.20
2022-10-26T07:41:10.676Z,14.30
2022-10-26T07:43:39.538Z,14.30
2022-10-26T07:46:08.277Z,14.30
2022-10-26T07:48:40.073Z,14.40
2022-10-26T07:51:08.801Z,14.40
2022-10-26T07:53:38.310Z,14.40
2022-10-26T07:56:09.751Z,14.50
2022-10-26T07:58:39.067Z,14.60
2022-10-26T08:01:08.983Z,14.60
2022-10-26T08:03:46.931Z,14.70
2022-10-26T08:06:15.694Z,14.70
2022-10-26T08:08:46.573Z,14.70
2022-10-26T08:11:18.312Z,14.70
2022-10-26T08:13:47.264Z,14.70
2022-10-26T08:16:16.122Z,14.80
2022-10-26T08:18:44.989Z,14.80
2022-10-26T08:21:21.870Z,14.90
2022-10-26T08:23:59.132Z,14.90
2022-10-26T08:26:29.366Z,14.90
2022-10-26T08:28:58.057Z,15.00
2022-10-26T08:31:26.742Z,15.00
2022-10-26T08:33:55.404Z,15.10
2022-10-26T08:36:26.970Z,15.10
2022-10-26T08:38:55.837Z,15.10
2022-10-26T08:41:34.323Z,15.10
2022-10-26T08:44:08.079Z,15.10
2022-10-26T08:46:41.128Z,15.10
2022-10-26T08:49:20.731Z,15.10
2022-10-26T08:51:52.837Z,15.10
2022-10-26T08:54:28.811Z,15.00
2022-10-26T08:57:03.091Z,14.90
2022-10-26T08:59:37.552Z,14.90
2022-10-26T09:02:14.012Z,14.80
2022-10-26T09:04:43.135Z,14.70
2022-10-26T09:07:20.274Z,14.70
2022-10-26T09:09:59.540Z,14.80
2022-10-26T09:12:38.282Z,14.80
2022-10-26T09:15:16.631Z,14.60
2022-10-26T09:17:53.977Z,14.50
2022-10-26T09:20:43.525Z,14.40
2022-10-26T09:23:25.385Z,14.30
2022-10-26T09:26:00.275Z,14.30
2022-10-26T09:28:36.040Z,14.10
2022-10-26T09:31:06.789Z,14.20
2022-10-26T09:33:38.974Z,14.20
2022-10-26T09:36:13.332Z,14.30
2022-10-26T09:38:50.612Z,14.30
2022-10-26T09:41:27.193Z,14.30
2022-10-26T09:44:07.735Z,14.10
2022-10-26T09:46:45.412Z,14.10
2022-10-26T09:49:16.985Z,14.00
2022-10-26T09:51:46.682Z,14.00
2022-10-26T09:54:17.727Z,14.00
2022-10-26T09:56:49.484Z,14.10
2022-10-26T09:59:22.043Z,14.20
2022-10-26T10:01:53.866Z,14.30
2022-10-26T10:04:24.446Z,14.30
2022-10-26T10:06:54.181Z,14.30
2022-10-26T10:09:24.465Z,14.40
2022-10-26T10:11:58.812Z,14.30
2022-10-26T10:14:34.730Z,14.20
2022-10-26T10:17:08.521Z,14.20
2022-10-26T10:19:38.810Z,14.20
2022-10-26T10:22:13.884Z,14.20
2022-10-26T10:24:44.086Z,14.30
2022-10-26T10:27:19.917Z,14.30
2022-10-26T10:29:52.651Z,14.30
2022-10-26T10:32:23.050Z,14.30
2022-10-26T10:34:54.237Z,14.30
2022-10-26T10:37:27.768Z,14.40
2022-10-26T10:40:06.527Z,14.40
2022-10-26T10:42:38.815Z,14.60
2022-10-26T10:45:20.898Z,14.70
2022-10-26T10:48:02.647Z,14.80
2022-10-26T10:50:32.080Z,14.90
2022-10-26T10:53:16.935Z,15.00
2022-10-26T10:55:54.340Z,15.20
2022-10-26T10:58:28.899Z,15.30
2022-10-26T11:00:59.691Z,15.50
2022-10-26T11:03:51.474Z,15.50
2022-10-26T11:06:23.154Z,15.60
2022-10-26T11:08:57.079Z,15.60
2022-10-26T11:11:30.347Z,15.70
2022-10-26T11:14:04.401Z,15.70
2022-10-26T11:16:40.510Z,15.80
2022-10-26T11:19:19.877Z,15.80
2022-10-26T11:21:52.896Z,15.80
2022-10-26T11:24:28.238Z,15.80
2022-10-26T11:27:01.609Z,15.90
2022-10-26T11:29:43.522Z,15.90
2022-10-26T11:32:22.017Z,15.80
2022-10-26T11:34:57.352Z,15.80
2022-10-26T11:37:32.142Z,15.80
2022-10-26T11:40:13.466Z,15.80
2022-10-26T11:42:46.304Z,15.70
2022-10-26T11:45:21.898Z,15.60
2022-10-26T11:47:55.411Z,15.50
2022-10-26T11:50:27.333Z,15.20
2022-10-26T11:53:01.314Z,15.50
2022-10-26T11:55:31.216Z,15.40
2022-10-26T11:58:00.462Z,15.30
2022-10-26T12:00:29.443Z,15.40
2022-10-26T12:03:03.687Z,15.40
2022-10-26T12:05:45.795Z,15.50
2022-10-26T12:08:18.668Z,15.40
2022-10-26T12:10:51.876Z,15.40
2022-10-26T12:13:28.339Z,15.40
2022-10-26T12:16:04.276Z,15.50
2022-10-26T12:18:54.946Z,15.40
2022-10-26T12:21:28.047Z,15.60
2022-10-26T12:23:58.570Z,15.90
2022-10-26T12:26:54.909Z,16.00
2022-10-26T12:29:38.343Z,16.10
2022-10-26T12:32:51.472Z,16.00
2022-10-26T12:35:42.603Z,16.00
2022-10-26T12:38:47.573Z,16.00
2022-10-26T12:41:27.516Z,16.10
2022-10-26T12:44:01.308Z,16.10
2022-10-26T12:46:41.435Z,16.10
2022-10-26T12:49:44.113Z,16.10
2022-10-26T12:52:41.660Z,16.00
2022-10-26T12:55:51.501Z,15.80
2022-10-26T12:58:51.694Z,15.70
2022-10-26T13:01:48.526Z,15.50
2022-10-26T13:04:35.905Z,15.40
2022-10-26T13:07:24.079Z,15.40
2022-10-26T13:09:59.977Z,15.20
2022-10-26T13:12:31.320Z,15.20
2022-10-26T13:15:05.719Z,15.10
2022-10-26T13:20:18.899Z,15.10
2022-10-26T13:22:50.098Z,15.10
2022-10-26T13:25:25.143Z,15.10
2022-10-26T13:28:03.722Z,15.10
2022-10-26T13:30:48.742Z,15.00
2022-10-26T13:33:32.585Z,15.10
2022-10-26T13:36:17.616Z,15.00
2022-10-26T13:38:51.480Z,14.90
2022-10-26T13:41:31.548Z,14.80
2022-10-26T13:44:08.616Z,14.80
2022-10-26T13:46:44.105Z,14.80
2022-10-26T13:49:21.886Z,14.80
2022-10-26T13:51:53.152Z,14.80
2022-10-26T13:54:30.053Z,14.60
2022-10-26T13:57:13.662Z,14.40
2022-10-26T13:59:46.394Z,14.20
2022-10-26T14:02:21.584Z,14.10
2022-10-26T14:04:55.860Z,14.00
2022-10-26T14:07:39.206Z,13.90
2022-10-26T14:10:24.500Z,13.70
2022-10-26T14:12:53.564Z,13.60
2022-10-26T14:15:28.819Z,13.60
2022-10-26T14:18:02.351Z,13.60
2022-10-26T14:20:32.347Z,13.60
2022-10-26T14:23:03.207Z,13.80
2022-10-26T14:25:42.904Z,13.80
2022-10-26T14:28:28.615Z,13.80
2022-10-26T14:31:15.175Z,13.90
2022-10-26T14:33:46.725Z,13.90
2022-10-26T14:36:16.493Z,13.90
2022-10-26T14:38:48.181Z,14.00
2022-10-26T14:41:19.354Z,13.90
2022-10-26T14:43:48.324Z,14.00
2022-10-26T14:46:18.948Z,14.00
2022-10-26T14:48:54.840Z,13.90
2022-10-26T14:51:28.406Z,13.90
2022-10-26T14:53:59.441Z,13.80
2022-10-26T14:56:32.082Z,13.80
2022-10-26T14:59:00.924Z,13.60
2022-10-26T15:01:35.871Z,13.60
2022-10-26T15:04:07.704Z,13.50
2022-10-26T15:06:44.716Z,13.30
2022-10-26T15:09:33.475Z,13.00
2022-10-26T15:12:06.596Z,12.70
2022-10-26T15:14:36.845Z,12.50
2022-10-26T15:17:05.697Z,12.30
2022-10-26T15:19:34.717Z,12.00
2022-10-26T15:22:03.509Z,11.90
2022-10-26T15:24:38.654Z,11.70
2022-10-26T15:27:17.768Z,11.50
2022-10-26T15:29:47.558Z,11.40
2022-10-26T15:32:23.456Z,11.20
2022-10-26T15:35:06.673Z,11.10
2022-10-26T15:37:35.480Z,11.00
2022-10-26T15:40:04.255Z,10.90
2022-10-26T15:42:34.649Z,10.90
2022-10-26T15:45:04.394Z,10.80
2022-10-26T15:47:35.799Z,10.80
2022-10-26T15:50:04.690Z,10.70
2022-10-26T15:52:33.626Z,10.70
2022-10-26T15:55:02.426Z,10.60
2022-10-26T15:57:31.032Z,10.50
2022-10-26T16:00:01.229Z,10.50
2022-10-26T16:02:30.037Z,10.40
2022-10-26T16:04:58.737Z,10.30
2022-10-26T16:07:29.125Z,10.20
2022-10-26T16:09:57.996Z,10.10
2022-10-26T16:12:26.737Z,10.00
2022-10-26T16:15:04.968Z,10.00
2022-10-26T16:17:35.827Z,9.90
2022-10-26T16:20:08.923Z,9.80
2022-10-26T16:22:38.566Z,9.70
2022-10-26T16:25:08.234Z,9.60
2022-10-26T16:27:36.855Z,9.60
2022-10-26T16:30:06.105Z,9.50
2022-10-26T16:32:36.091Z,9.40
2022-10-26T16:35:04.822Z,9.40
2022-10-26T16:37:33.738Z,9.30
2022-10-26T16:40:02.450Z,9.30
2022-10-26T16:42:32.517Z,9.20
2022-10-26T16:45:02.833Z,9.20
2022-10-26T16:47:37.833Z,9.10
2022-10-26T16:50:06.972Z,9.10
2022-10-26T16:52:36.602Z,9.00
2022-10-26T16:55:07.954Z,9.00
2022-10-26T16:57:37.789Z,9.00
2022-10-26T17:00:07.978Z,8.90
2022-10-26T17:02:41.131Z,8.90
2022-10-26T17:05:10.242Z,8.80
2022-10-26T17:07:39.020Z,8.80
2022-10-26T17:10:08.152Z,8.70
2022-10-26T17:12:36.762Z,8.70
2022-10-26T17:15:05.704Z,8.70
2022-10-26T17:17:34.316Z,8.60
2022-10-26T17:20:04.632Z,8.60
2022-10-26T17:22:33.347Z,8.50
2022-10-26T17:25:02.039Z,8.40
2022-10-26T17:27:30.667Z,8.50
2022-10-26T17:29:59.340Z,8.40
2022-10-26T17:32:28.165Z,8.30
2022-10-26T17:34:56.891Z,8.20
2022-10-26T17:37:27.012Z,8.20
2022-10-26T17:39:55.692Z,8.20
2022-10-26T17:42:24.342Z,8.20
2022-10-26T17:44:53.122Z,8.10
2022-10-26T17:47:21.755Z,8.10
2022-10-26T17:49:53.437Z,8.00
2022-10-26T17:52:24.868Z,8.00
2022-10-26T17:54:58.075Z,8.00
2022-10-26T17:57:29.178Z,7.90
2022-10-26T17:59:57.895Z,7.90
2022-10-26T18:02:26.769Z,7.80
2022-10-26T18:04:56.502Z,7.80
2022-10-26T18:07:25.153Z,7.80
2022-10-26T18:09:55.205Z,7.80
2022-10-26T18:12:25.081Z,7.70
2022-10-26T18:14:53.726Z,7.60
2022-10-26T18:17:22.396Z,7.60
2022-10-26T18:19:53.936Z,7.60
2022-10-26T18:22:23.062Z,7.60
2022-10-26T18:24:51.758Z,7.50
2022-10-26T18:27:22.111Z,7.50
2022-10-26T18:29:50.967Z,7.50
2022-10-26T18:32:19.579Z,7.40
2022-10-26T18:34:48.346Z,7.40
2022-10-26T18:37:16.986Z,7.40
2022-10-26T18:39:45.663Z,7.30
2022-10-26T18:42:16.965Z,7.30
2022-10-26T18:44:47.167Z,7.30
2022-10-26T18:47:15.883Z,7.20
2022-10-26T18:49:44.512Z,7.20
2022-10-26T18:52:13.561Z,7.10
2022-10-26T18:54:42.367Z,7.10
2022-10-26T18:57:11.048Z,7.10
2022-10-26T18:59:39.658Z,7.00
2022-10-26T19:02:15.555Z,7.00
2022-10-26T19:04:44.428Z,7.00
2022-10-26T19:07:12.978Z,6.90
2022-10-26T19:09:41.990Z,6.90
2022-10-26T19:12:10.603Z,6.90
2022-10-26T19:14:39.321Z,6.80
2022-10-26T19:17:10.586Z,6.80
2022-10-26T19:19:39.292Z,6.80
2022-10-26T19:22:07.902Z,6.80
2022-10-26T19:24:36.622Z,6.80
2022-10-26T19:27:05.528Z,6.70
2022-10-26T19:29:34.169Z,6.80
2022-10-26T19:32:03.053Z,6.70
2022-10-26T19:34:33.209Z,6.70
2022-10-26T19:37:01.913Z,6.70
2022-10-26T19:39:30.841Z,6.60
2022-10-26T19:41:59.516Z,6.60
2022-10-26T19:44:28.129Z,6.60
2022-10-26T19:46:57.885Z,6.70
2022-10-26T19:49:26.646Z,6.80
2022-10-26T19:51:58.198Z,7.00
2022-10-26T19:54:27.100Z,7.10
2022-10-26T19:56:55.727Z,7.20
2022-10-26T19:59:24.377Z,7.40
2022-10-26T20:01:53.057Z,7.50
2022-10-26T20:04:21.865Z,7.60
2022-10-26T20:06:50.497Z,7.60
2022-10-26T20:09:20.621Z,7.60
2022-10-26T20:11:49.976Z,7.70
2022-10-26T20:14:18.781Z,7.70
2022-10-26T20:16:47.697Z,7.70
2022-10-26T20:19:16.318Z,7.80
2022-10-26T20:21:45.161Z,7.80
2022-10-26T20:24:13.982Z,7.90
2022-10-26T20:26:43.978Z,7.90
2022-10-26T20:29:12.636Z,7.80
2022-10-26T20:31:41.270Z,7.80
2022-10-26T20:34:10.722Z,7.80
2022-10-26T20:36:39.930Z,7.70
2022-10-26T20:39:09.089Z,7.70
2022-10-26T20:41:44.910Z,7.70
2022-10-26T20:44:22.655Z,7.50
2022-10-26T20:46:52.118Z,7.50
2022-10-26T20:49:21.421Z,7.40
2022-10-26T20:52:19.379Z,7.40
2022-10-26T20:54:52.852Z,7.30
2022-10-26T20:57:29.844Z,7.20
2022-10-26T21:00:04.107Z,7.10
2022-10-26T21:02:33.089Z,7.10
2022-10-26T21:05:01.755Z,7.10
2022-10-26T21:07:30.374Z,7.00
2022-10-26T21:09:59.030Z,7.00
2022-10-26T21:12:29.049Z,6.90
2022-10-26T21:14:57.736Z,6.80
2022-10-26T21:17:26.347Z,6.80
2022-10-26T21:19:54.970Z,6.80
2022-10-26T21:22:23.770Z,6.70
2022-10-26T21:24:52.372Z,6.60
2022-10-26T21:27:21.044Z,6.60
2022-10-26T21:29:51.159Z,6.50
2022-10-26T21:32:19.846Z,6.50
2022-10-26T21:34:48.455Z,6.50
2022-10-26T21:37:17.128Z,6.40
2022-10-26T21:39:45.774Z,6.40
2022-10-26T21:42:14.385Z,6.40
2022-10-26T21:44:43.094Z,6.30
2022-10-26T21:47:14.017Z,6.30
2022-10-26T21:49:42.640Z,6.30
2022-10-26T21:52:11.563Z,6.20
2022-10-26T21:54:40.192Z,6.20
2022-10-26T21:57:08.853Z,6.20
2022-10-26T21:59:37.426Z,6.10
2022-10-26T22:02:06.376Z,6.20
2022-10-26T22:04:36.626Z,6.20
2022-10-26T22:07:05.343Z,6.20
2022-10-26T22:09:40.622Z,6.10
2022-10-26T22:12:18.326Z,6.10
2022-10-26T22:14:46.924Z,6.00
2022-10-26T22:17:15.834Z,6.00
2022-10-26T22:19:45.946Z,5.90
2022-10-26T22:22:14.556Z,5.90
2022-10-26T22:24:43.187Z,5.90
2022-10-26T22:27:12.019Z,5.90
2022-10-26T22:29:40.762Z,5.90
2022-10-26T22:32:09.384Z,5.90
2022-10-26T22:34:37.974Z,5.90
2022-10-26T22:37:08.118Z,5.90
2022-10-26T22:39:36.834Z,5.90
2022-10-26T22:42:06.178Z,5.90
2022-10-26T22:44:34.840Z,5.80
2022-10-26T22:47:03.460Z,5.80
2022-10-26T22:49:32.143Z,5.70
2022-10-26T22:52:00.876Z,5.80
2022-10-26T22:54:30.996Z,5.80
2022-10-26T22:56:59.579Z,5.80
2022-10-26T22:59:28.213Z,5.90
2022-10-26T23:01:57.003Z,5.90
2022-10-26T23:04:25.713Z,5.90
2022-10-26T23:06:54.391Z,5.90
2022-10-26T23:09:23.089Z,6.00
2022-10-26T23:11:53.132Z,6.00
2022-10-26T23:14:21.688Z,6.00
2022-10-26T23:16:50.381Z,6.00
2022-10-26T23:19:19.009Z,6.00
2022-10-26T23:21:47.794Z,6.00
2022-10-26T23:24:16.397Z,6.00
2022-10-26T23:26:45.070Z,6.00
2022-10-26T23:29:15.170Z,6.10
2022-10-26T23:31:43.853Z,6.00
2022-10-26T23:34:12.590Z,6.00
2022-10-26T23:36:41.294Z,6.00
2022-10-26T23:39:10.068Z,6.00
2022-10-26T23:41:38.668Z,6.00
2022-10-26T23:44:07.293Z,6.10
2022-10-26T23:46:37.316Z,6.10
2022-10-26T23:49:05.991Z,6.20
2022-10-26T23:51:34.709Z,6.20
2022-10-26T23:54:03.294Z,6.20
2022-10-26T23:56:32.251Z,6.30
2022-10-26T23:59:05.574Z,6.30
